Mesa, AZ (85201)

3:47 PM MST on March 26, 2015 (GMT -0700)
W 1st St.@ Date St. | | Change Station
CLOSE
Current Station
Personal Weather Station
Location: Mesa, AZ
Elevation: 1230 ft
Nearby Weather Stations

Elev 1230 ft 33.41 °N, 111.85 °W | Updated 5 seconds ago

Partly Cloudy
Partly Cloudy
92.7 °F
Feels Like 88 °F
N
1.5
Wind Variable Wind from NNE
Gusts 2.7 mph

Today
High -- | Low -- °F
--% Chance of Precip.
Yesterday
High -- | Low -- °F
Precip. -- in
6:23 AM 6:43 PM
Waxing Crescent, 46% visible
Pressure 30.04 in
Visibility 40.0 miles
Clouds Scattered Clouds 20000 ft
Heat Index 88 °F
Dew Point 20 °F
Humidity 7%
Rainfall 0.00 in
Snow Depth Not available.
UV 5 out of 12
Pollen 11.30 out of 12
Air Quality Not available.
Flu Activity Not available.
METAR KFFZ 262147Z 27008KT 40SM SCT200 30/M13 A3004 RMK WIND ESTIMATED

More Conditions Fewer Conditions

Pressure 30.04 in
Visibility 40.0 miles
Clouds Scattered Clouds 20000 ft
Heat Index 88 °F
Dew Point 20 °F
Humidity 7%
Rainfall 0.00 in
Snow Depth Not available.
UV 5 out of 12
Pollen 11.30 out of 12
Air Quality Not available.
Flu Activity Not available.
METAR KFFZ 262147Z 27008KT 40SM SCT200 30/M13 A3004 RMK WIND ESTIMATED

More Conditions Fewer Conditions

10-Day Weather Forecast

Almanac

Astronomy

Mar. 26, 2015 Rise Set
Actual Time
Civil Twilight
Nautical Twilight
Astronomical Twilight
Moon
Length of Visible Light
Length of Day
Tomorrow will be .
, % of the Moon is Illuminated

Today's Extremes

State Highs State Lows

Community

WunderPhotos

Upload Photos

1,808,629 photos uploaded!

WunderBlogs® & News

Nearby

Air Quality

  Air Quality AQ Index Pollutant
Not available.

Snow Depth

Station Depth Elevation

Earthquake Activity

City Distance Mag. Time & Date
Minimum magnitude displayed is 2.5.

Coastal Water Temperatures

Place Temperature

Stations

Nearby Weather Stations

Station Location Temp. Windchill Dew Point Humidity Wind Precip. Elev Updated Type